Time;durP1;ratioP1;P1;durP2;ratioP2;P2;SDS_P1;SDS_P2;PMS_P1;PMS_P2;Temp;Humidity;BMP_temperature;BMP_pressure;BME280_temperature;BME280_humidity;BME280_pressure;Samples;Min_cycle;Max_cycle;Signal;HPM_P1;HPM_P2
2023/10/06 00:02:07;;;;;;;;;;;;;;;17.92;46.79;100162.03;5050480;28;19956;-78
2023/10/06 00:04:38;;;;;;;;;;;;;;;17.89;45.88;100168.63;5051957;28;20424;-78
2023/10/06 00:07:07;;;;;;;;;;;;;;;17.84;47.01;100167.59;5050789;28;19917;-78
2023/10/06 00:09:32;;;;;;;;;;;;;;;17.82;46.60;100175.78;5052040;28;20413;-78
2023/10/06 00:11:59;;;;;;;;;;;;;;;17.81;45.88;100176.00;5051119;28;19917;-78
2023/10/06 00:14:39;;;;;;;;;;;;;;;17.74;46.55;100166.16;5051943;28;19916;-77
2023/10/06 00:17:09;;;;;;;;;;;;;;;17.72;46.17;100173.56;5051951;28;19913;-77
2023/10/06 00:19:36;;;;;;;;;;;;;;;17.69;46.66;100194.53;5051849;28;19917;-78
2023/10/06 00:22:18;;;;;;;;;;;;;;;17.60;46.60;100177.06;5051799;28;20011;-77
2023/10/06 00:24:47;;;;;;;;;;;;;;;17.58;46.29;100173.75;5051854;28;20283;-78
2023/10/06 00:27:13;;;;;;;;;;;;;;;17.60;46.44;100174.38;5051975;28;19923;-78
2023/10/06 00:29:39;;;;;;;;;;;;;;;17.51;46.81;100180.97;5051880;28;20000;-78
2023/10/06 00:32:21;;;;;;;;;;;;;;;17.41;47.17;100174.19;5051704;28;19917;-78
2023/10/06 00:34:47;;;;;;;;;;;;;;;17.32;46.99;100175.44;5050463;28;19920;-78
2023/10/06 00:37:13;;;;;;;;;;;;;;;17.33;46.96;100165.59;5051988;28;19913;-78
2023/10/06 00:39:39;;;;;;;;;;;;;;;17.34;47.50;100161.88;5051760;28;19956;-78
2023/10/06 00:42:06;;;;;;;;;;;;;;;17.37;47.01;100162.28;5051790;28;19924;-79
2023/10/06 00:44:31;;;;;;;;;;;;;;;17.44;46.50;100155.09;5051895;28;20004;-78
2023/10/06 00:47:05;;;;;;;;;;;;;;;17.48;46.58;100155.50;5055636;28;19995;-78
2023/10/06 00:49:32;;;;;;;;;;;;;;;17.48;47.37;100155.50;5054498;28;20364;-78
2023/10/06 00:51:59;;;;;;;;;;;;;;;17.42;47.29;100169.69;5054499;28;19913;-78
2023/10/06 00:54:25;;;;;;;;;;;;;;;17.30;47.02;100166.00;5055753;28;19920;-78
2023/10/06 00:56:51;;;;;;;;;;;;;;;17.26;47.52;100162.09;5055963;28;19913;-78
2023/10/06 00:59:16;;;;;;;;;;;;;;;17.27;47.22;100161.06;5055890;28;19919;-77
2023/10/06 01:01:42;;;;;;;;;;;;;;;17.13;47.56;100158.41;5055913;28;20461;-78
2023/10/06 01:04:08;;;;;;;;;;;;;;;17.00;47.36;100154.88;5055591;28;19921;-77
2023/10/06 01:06:35;;;;;;;;;;;;;;;16.92;48.05;100160.44;5055676;28;19932;-78
2023/10/06 01:09:34;;;;;;;;;;;;;;;16.93;47.80;100160.22;5055932;28;19913;-78
2023/10/06 01:11:52;;;;;;;;;;;;;;;16.88;47.86;100162.69;5054459;28;19917;-78
2023/10/06 01:14:22;;;;;;;;;;;;;;;16.84;48.62;100158.78;5055890;28;20432;-77
2023/10/06 01:16:49;;;;;;;;;;;;;;;16.78;47.80;100162.25;5056039;28;19913;-78
2023/10/06 01:19:16;;;;;;;;;;;;;;;16.76;48.03;100158.97;5058407;28;19912;-77
2023/10/06 01:21:46;;;;;;;;;;;;;;;16.65;48.49;100151.53;5064705;28;19917;-78
2023/10/06 01:24:13;;;;;;;;;;;;;;;16.65;48.95;100151.53;5055352;28;20417;-78
2023/10/06 01:26:41;;;;;;;;;;;;;;;16.58;48.77;100150.72;5055078;28;20024;-78
2023/10/06 01:29:10;;;;;;;;;;;;;;;16.56;48.15;100142.09;5055135;28;19913;-78
2023/10/06 01:31:39;;;;;;;;;;;;;;;16.51;49.03;100151.50;5055071;28;20309;-78
2023/10/06 01:34:07;;;;;;;;;;;;;;;16.46;48.92;100145.97;5054905;28;19963;-77
2023/10/06 01:36:33;;;;;;;;;;;;;;;16.40;48.26;100144.09;5054901;28;19913;-78
2023/10/06 01:39:04;;;;;;;;;;;;;;;16.36;48.67;100147.38;5054790;28;19920;-79
2023/10/06 01:41:29;;;;;;;;;;;;;;;16.30;48.40;100142.81;5054705;28;19979;-78
2023/10/06 01:43:54;;;;;;;;;;;;;;;16.30;48.22;100146.31;5054643;28;19913;-78
2023/10/06 01:46:20;;;;;;;;;;;;;;;16.31;48.49;100149.78;5054811;28;20019;-77
2023/10/06 01:48:46;;;;;;;;;;;;;;;16.33;49.13;100145.09;5054634;28;19917;-77
2023/10/06 01:51:15;;;;;;;;;;;;;;;16.29;49.61;100147.31;5054753;28;19913;-78
2023/10/06 01:53:41;;;;;;;;;;;;;;;16.24;49.62;100144.44;5054564;28;19962;-78
2023/10/06 01:56:07;;;;;;;;;;;;;;;16.27;49.26;100138.72;5053153;28;19970;-77
2023/10/06 01:58:32;;;;;;;;;;;;;;;16.29;49.60;100138.50;5054341;28;19987;-77
2023/10/06 02:00:58;;;;;;;;;;;;;;;16.33;49.22;100140.56;5054446;28;19913;-78
2023/10/06 02:03:23;;;;;;;;;;;;;;;16.30;49.31;100146.31;5054095;28;19936;-77
2023/10/06 02:05:48;;;;;;;;;;;;;;;16.29;48.96;100141.19;5053397;28;19924;-78
2023/10/06 02:08:23;;;;;;;;;;;;;;;16.34;49.24;100131.56;5054351;28;19913;-78
2023/10/06 02:10:52;;;;;;;;;;;;;;;16.37;49.42;100139.19;5054332;28;20317;-77
2023/10/06 02:13:21;;;;;;;;;;;;;;;16.42;48.85;100130.59;5052970;28;20480;-77
2023/10/06 02:15:46;;;;;;;;;;;;;;;16.39;49.38;100133.66;5054058;28;20405;-78
2023/10/06 02:18:12;;;;;;;;;;;;;;;16.39;48.60;100131.81;5054028;28;20006;-78
2023/10/06 02:20:39;;;;;;;;;;;;;;;16.34;49.98;100134.22;5054024;28;19919;-78
2023/10/06 02:23:04;;;;;;;;;;;;;;;16.32;49.93;100130.94;5052647;28;20408;-77
2023/10/06 02:25:31;;;;;;;;;;;;;;;16.34;48.19;100130.72;5054602;28;19917;-79
2023/10/06 02:27:59;;;;;;;;;;;;;;;16.32;49.05;100136.25;5054419;28;20389;-78
2023/10/06 02:30:33;;;;;;;;;;;;;;;16.28;48.58;100139.53;5054211;28;20004;-78
2023/10/06 02:32:59;;;;;;;;;;;;;;;16.16;49.93;100139.28;5052674;28;19920;-77
2023/10/06 02:35:24;;;;;;;;;;;;;;;16.10;48.96;100142.75;5053980;28;19909;-78
2023/10/06 02:37:49;;;;;;;;;;;;;;;15.99;49.61;100140.66;5053560;28;19917;-78
2023/10/06 02:40:16;;;;;;;;;;;;;;;15.93;48.48;100154.75;5053633;28;19971;-78
2023/10/06 02:42:45;;;;;;;;;;;;;;;15.78;50.21;100155.72;5053662;28;19999;-78
2023/10/06 02:45:20;;;;;;;;;;;;;;;15.85;49.28;100153.09;5053639;28;19916;-78
2023/10/06 02:47:49;;;;;;;;;;;;;;;15.80;49.64;100152.88;5053275;28;19917;-78
2023/10/06 02:50:19;;;;;;;;;;;;;;;15.73;49.25;100155.50;5053456;28;19913;-78
2023/10/06 02:52:46;;;;;;;;;;;;;;;15.68;50.07;100155.25;5053324;28;20385;-77
2023/10/06 02:55:12;;;;;;;;;;;;;;;15.63;49.92;100140.88;5053451;28;19913;-78
2023/10/06 02:57:39;;;;;;;;;;;;;;;15.61;49.73;100143.75;5053889;28;19919;-78
2023/10/06 03:03:03;;;;;;;;;;;;;;;15.56;49.85;100146.94;5045786;28;20376;-78
2023/10/06 03:05:38;;;;;;;;;;;;;;;15.53;49.94;100147.31;5053144;28;19924;-79
2023/10/06 03:08:13;;;;;;;;;;;;;;;15.57;50.25;100148.59;5052935;28;20317;-77
2023/10/06 03:10:44;;;;;;;;;;;;;;;15.60;49.70;100142.06;5055590;28;19917;-77
2023/10/06 03:13:10;;;;;;;;;;;;;;;15.64;50.40;100147.84;5056837;28;19913;-77
2023/10/06 03:15:42;;;;;;;;;;;;;;;15.63;49.85;100140.88;5053638;28;19913;-77
2023/10/06 03:18:08;;;;;;;;;;;;;;;15.65;49.50;100146.84;5053225;28;19913;-77
2023/10/06 03:23:38;;;;;;;;;;;;;;;15.60;49.77;100151.91;5048522;28;20370;-78
2023/10/06 03:26:12;;;;;;;;;;;;;;;15.60;50.26;100158.03;5052599;28;19920;-78
2023/10/06 03:28:37;;;;;;;;;;;;;;;15.56;50.31;100146.94;5052430;28;19913;-77
2023/10/06 03:31:21;;;;;;;;;;;;;;;15.56;50.81;100151.44;5052800;28;20445;-77
2023/10/06 03:33:54;;;;;;;;;;;;;;;15.60;49.67;100152.72;5052779;28;19917;-77
2023/10/06 03:36:37;;;;;;;;;;;;;;;15.63;50.25;100140.88;5053251;28;19913;-78
2023/10/06 03:39:07;;;;;;;;;;;;;;;15.71;50.61;100144.22;5053090;28;19920;-77
2023/10/06 03:41:36;;;;;;;;;;;;;;;15.72;50.18;100140.53;5052844;28;19913;-78
2023/10/06 03:44:03;;;;;;;;;;;;;;;15.70;50.32;100145.22;5052924;28;19913;-77
2023/10/06 03:46:36;;;;;;;;;;;;;;;15.72;50.16;100145.84;5051278;28;19924;-78
2023/10/06 03:49:03;;;;;;;;;;;;;;;15.72;50.00;100142.38;5052698;28;19913;-77
2023/10/06 03:51:29;;;;;;;;;;;;;;;15.73;51.47;100144.84;5052577;28;19912;-78
2023/10/06 03:53:56;;;;;;;;;;;;;;;15.71;50.69;100149.53;5052474;28;20062;-78
2023/10/06 03:56:21;;;;;;;;;;;;;;;15.68;51.14;100151.78;5052566;28;19936;-78
2023/10/06 03:58:47;;;;;;;;;;;;;;;15.65;50.58;100150.31;5052397;28;20382;-77
2023/10/06 04:01:16;;;;;;;;;;;;;;;15.69;51.91;100148.91;5051006;28;19925;-78
2023/10/06 04:03:43;;;;;;;;;;;;;;;15.71;50.05;100151.38;5051930;28;20410;-77
2023/10/06 04:06:12;;;;;;;;;;;;;;;15.70;51.06;100147.91;5052029;28;19917;-78
2023/10/06 04:08:38;;;;;;;;;;;;;;;15.73;49.51;100144.84;5052096;28;19920;-78
2023/10/06 04:11:04;;;;;;;;;;;;;;;15.72;51.01;100156.50;5050847;28;20309;-78
2023/10/06 04:13:31;;;;;;;;;;;;;;;15.69;50.75;100153.41;5052037;28;19935;-77
2023/10/06 04:15:57;;;;;;;;;;;;;;;15.69;50.72;100150.75;5052170;28;19913;-78
2023/10/06 04:18:24;;;;;;;;;;;;;;;15.71;51.81;100156.72;5052265;28;19916;-78
2023/10/06 04:20:53;;;;;;;;;;;;;;;15.70;51.13;100155.06;5051238;28;19912;-78
2023/10/06 04:23:18;;;;;;;;;;;;;;;15.69;51.80;100153.41;5051740;28;20472;-77
2023/10/06 04:25:45;;;;;;;;;;;;;;;15.68;51.46;100151.78;5050590;28;20011;-78
2023/10/06 04:28:13;;;;;;;;;;;;;;;15.69;50.83;100156.09;5052435;28;20374;-78
2023/10/06 04:30:42;;;;;;;;;;;;;;;15.69;51.54;100158.75;5052377;28;20323;-78
2023/10/06 04:33:09;;;;;;;;;;;;;;;15.70;50.26;100161.22;5052077;28;19987;-77
2023/10/06 04:35:35;;;;;;;;;;;;;;;15.72;51.87;100161.00;5052170;28;19912;-77
2023/10/06 04:38:00;;;;;;;;;;;;;;;15.76;50.40;100165.75;5051929;28;20309;-78
2023/10/06 04:40:27;;;;;;;;;;;;;;;15.83;51.16;100171.94;5051967;28;20479;-77
2023/10/06 04:42:52;;;;;;;;;;;;;;;15.89;51.54;100175.66;5051982;28;20499;-78
2023/10/06 04:45:17;;;;;;;;;;;;;;;15.88;50.86;100177.50;5051622;28;19925;-78
2023/10/06 04:47:43;;;;;;;;;;;;;;;15.91;52.04;100180.78;5052205;28;19913;-76
2023/10/06 04:50:09;;;;;;;;;;;;;;;15.95;51.03;100182.03;5051695;28;19913;-77
2023/10/06 04:52:35;;;;;;;;;;;;;;;16.01;50.09;100179.41;5050137;28;19913;-77
2023/10/06 04:55:03;;;;;;;;;;;;;;;16.02;51.90;100188.22;5051397;28;19947;-77
2023/10/06 04:57:28;;;;;;;;;;;;;;;16.01;50.80;100178.56;5051485;28;20360;-77
2023/10/06 04:59:53;;;;;;;;;;;;;;;16.07;51.46;100185.78;5051666;28;19909;-77
2023/10/06 05:02:21;;;;;;;;;;;;;;;16.10;51.45;100185.38;5050288;28;20287;-77
2023/10/06 05:04:46;;;;;;;;;;;;;;;16.10;51.25;100180.88;5051707;28;19939;-77
2023/10/06 05:07:11;;;;;;;;;;;;;;;16.07;51.51;100183.09;5050352;28;20382;-77
2023/10/06 05:09:39;;;;;;;;;;;;;;;16.08;51.56;100190.06;5051847;28;19985;-76
2023/10/06 05:12:04;;;;;;;;;;;;;;;16.14;51.93;100186.63;5052387;28;20004;-77
2023/10/06 05:14:30;;;;;;;;;;;;;;;16.21;51.89;100188.28;5054016;28;20003;-76
2023/10/06 05:16:55;;;;;;;;;;;;;;;16.30;51.69;100188.94;5068287;28;20324;-76
2023/10/06 05:19:21;;;;;;;;;;;;;;;16.36;51.66;100190.84;5071685;28;19916;-78
2023/10/06 05:21:47;;;;;;;;;;;;;;;16.45;51.81;100194.16;5069479;28;20388;-76
2023/10/06 05:24:12;;;;;;;;;;;;;;;16.57;51.00;100192.53;5069892;28;19916;-77
2023/10/06 05:26:38;;;;;;;;;;;;;;;16.75;50.64;100202.66;5071454;28;20376;-76
2023/10/06 05:29:03;;;;;;;;;;;;;;;16.87;50.47;100210.91;5070517;28;19916;-78
2023/10/06 05:31:29;;;;;;;;;;;;;;;16.95;49.70;100203.53;5073278;28;20384;-78
2023/10/06 05:33:54;;;;;;;;;;;;;;;17.05;50.65;100208.44;5070442;28;20356;-78
2023/10/06 05:36:19;;;;;;;;;;;;;;;17.09;50.54;100204.34;5073800;28;19923;-77
2023/10/06 05:38:45;;;;;;;;;;;;;;;17.15;50.60;100206.25;5062691;28;19921;-76
2023/10/06 05:41:15;;;;;;;;;;;;;;;17.21;50.45;100221.44;5071764;28;19912;-78
2023/10/06 05:43:40;;;;;;;;;;;;;;;17.31;50.41;100219.19;5074861;28;19916;-78
2023/10/06 05:46:05;;;;;;;;;;;;;;;17.42;49.99;100215.88;5073317;28;19916;-77
2023/10/06 05:48:31;;;;;;;;;;;;;;;17.52;50.00;100215.47;5074665;28;19921;-77
2023/10/06 05:51:05;;;;;;;;;;;;;;;17.59;49.92;100210.13;5073465;28;19955;-77
2023/10/06 05:53:39;;;;;;;;;;;;;;;17.66;50.40;100221.63;5074642;28;19916;-78
2023/10/06 05:56:07;;;;;;;;;;;;;;;17.70;49.80;100220.19;5073640;28;19948;-79
2023/10/06 05:58:34;;;;;;;;;;;;;;;17.77;49.71;100218.34;5060918;28;19973;-76
2023/10/06 06:01:06;;;;;;;;;;;;;;;17.85;49.82;100217.31;5054554;28;19917;-78
2023/10/06 06:03:31;;;;;;;;;;;;;;;17.87;49.13;100217.94;5054276;28;19928;-77
2023/10/06 06:06:02;;;;;;;;;;;;;;;17.89;50.34;100227.38;5070604;28;19921;-78
2023/10/06 06:08:30;;;;;;;;;;;;;;;17.97;49.70;100221.81;5069384;28;19934;-77
2023/10/06 06:10:55;;;;;;;;;;;;;;;18.04;49.94;100225.28;5068517;28;20411;-76
2023/10/06 06:13:21;;;;;;;;;;;;;;;18.09;49.82;100230.00;5072482;28;19948;-78
2023/10/06 06:15:48;;;;;;;;;;;;;;;18.14;49.60;100224.03;5074155;28;20280;-77
2023/10/06 06:18:13;;;;;;;;;;;;;;;18.13;50.59;100228.56;5074432;28;19912;-76
2023/10/06 06:20:41;;;;;;;;;;;;;;;18.15;49.93;100228.34;5070132;28;20468;-76
2023/10/06 06:23:08;;;;;;;;;;;;;;;18.20;50.41;100236.56;5073783;28;20016;-76
2023/10/06 06:25:35;;;;;;;;;;;;;;;18.25;49.90;100228.72;5069405;28;19970;-76
2023/10/06 06:28:01;;;;;;;;;;;;;;;18.31;49.90;100230.53;5072027;28;19912;-77
2023/10/06 06:30:26;;;;;;;;;;;;;;;18.39;49.03;100227.63;5069585;28;19975;-78
2023/10/06 06:32:52;;;;;;;;;;;;;;;18.45;49.85;100228.63;5053921;28;19912;-76
2023/10/06 06:35:19;;;;;;;;;;;;;;;18.53;49.99;100231.88;5052393;28;19917;-76
2023/10/06 06:37:59;;;;;;;;;;;;;;;18.58;50.21;100236.59;5053856;28;20398;-76
2023/10/06 06:40:26;;;;;;;;;;;;;;;18.68;49.42;100231.66;5065116;28;19916;-78
2023/10/06 06:42:52;;;;;;;;;;;;;;;18.74;49.40;100238.84;5074632;28;19916;-78
2023/10/06 06:45:17;;;;;;;;;;;;;;;18.80;49.85;100237.97;5071660;28;20025;-77
2023/10/06 06:47:43;;;;;;;;;;;;;;;18.86;49.57;100230.94;5062618;28;19988;-76
2023/10/06 06:50:09;;;;;;;;;;;;;;;18.90;49.10;100230.31;5054094;28;19917;-77
2023/10/06 06:52:35;;;;;;;;;;;;;;;18.99;48.63;100236.22;5063872;28;19916;-78
2023/10/06 06:55:01;;;;;;;;;;;;;;;19.09;48.51;100233.06;5073043;28;20382;-77
2023/10/06 06:57:26;;;;;;;;;;;;;;;19.19;48.43;100231.53;5055441;28;19917;-78
2023/10/06 06:59:52;;;;;;;;;;;;;;;19.25;48.33;100235.22;5054196;28;20010;-78
2023/10/06 07:02:18;;;;;;;;;;;;;;;19.31;48.09;100231.66;5053141;28;19978;-78
2023/10/06 07:04:44;;;;;;;;;;;;;;;19.40;48.05;100238.41;5073924;28;19928;-77
2023/10/06 07:07:09;;;;;;;;;;;;;;;19.49;48.04;100233.59;5073201;28;19923;-77
2023/10/06 07:09:35;;;;;;;;;;;;;;;19.58;46.93;100235.81;5072793;28;19916;-78
2023/10/06 07:12:00;;;;;;;;;;;;;;;19.66;47.17;100232.03;5064317;28;19920;-78
2023/10/06 07:14:27;;;;;;;;;;;;;;;19.74;46.79;100228.25;5073437;28;19967;-77
2023/10/06 07:16:53;;;;;;;;;;;;;;;19.81;46.82;100245.09;5073779;28;19973;-77
2023/10/06 07:19:19;;;;;;;;;;;;;;;19.85;46.83;100235.56;5074473;28;19916;-77
2023/10/06 07:21:44;;;;;;;;;;;;;;;19.88;46.40;100233.25;5076007;28;19912;-77
2023/10/06 07:24:13;;;;;;;;;;;;;;;19.96;46.90;100232.16;5062666;28;19917;-77
2023/10/06 07:26:42;;;;;;;;;;;;;;;20.04;46.24;100229.16;5078651;28;19948;-77
2023/10/06 07:29:07;;;;;;;;;;;;;;;20.10;46.16;100222.13;5075225;28;19987;-77
2023/10/06 07:31:32;;;;;;;;;;;;;;;20.15;46.46;100227.63;5075587;28;19916;-77
2023/10/06 07:33:58;;;;;;;;;;;;;;;20.25;46.06;100244.03;5069553;28;19927;-77
2023/10/06 07:36:23;;;;;;;;;;;;;;;20.29;45.66;100231.81;5051503;28;20019;-77
2023/10/06 07:38:48;;;;;;;;;;;;;;;20.34;45.74;100239.19;5052813;28;19982;-78
2023/10/06 07:41:17;;;;;;;;;;;;;;;20.42;45.73;100225.50;5052723;28;19912;-77
2023/10/06 07:43:46;;;;;;;;;;;;;;;20.48;45.65;100224.59;5053040;28;19913;-77
2023/10/06 07:46:11;;;;;;;;;;;;;;;20.54;45.42;100229.03;5053069;28;19924;-77
2023/10/06 07:48:36;;;;;;;;;;;;;;;20.59;45.22;100223.81;5053281;28;19912;-77
2023/10/06 07:51:08;;;;;;;;;;;;;;;20.67;45.25;100223.50;5053099;28;19944;-76
2023/10/06 07:53:35;;;;;;;;;;;;;;;20.75;44.92;100225.03;5052336;28;19921;-77
2023/10/06 07:56:06;;;;;;;;;;;;;;;20.81;44.98;100221.47;5051059;28;19988;-77
2023/10/06 07:58:32;;;;;;;;;;;;;;;20.92;44.55;100226.88;5052233;28;19913;-78
2023/10/06 08:01:01;;;;;;;;;;;;;;;20.93;44.62;100222.34;5051318;28;19920;-76
2023/10/06 08:03:26;;;;;;;;;;;;;;;21.02;45.09;100212.09;5052376;28;19921;-77
2023/10/06 08:05:52;;;;;;;;;;;;;;;21.10;44.52;100215.25;5052501;28;19917;-77
2023/10/06 08:08:17;;;;;;;;;;;;;;;21.11;44.31;100219.59;5051978;28;19913;-77
2023/10/06 08:10:42;;;;;;;;;;;;;;;21.15;44.34;100226.13;5052160;28;20305;-76
2023/10/06 08:13:07;;;;;;;;;;;;;;;21.27;44.14;100223.50;5052494;28;19948;-76
2023/10/06 08:15:33;;;;;;;;;;;;;;;21.32;44.21;100223.63;5052436;28;19919;-77
2023/10/06 08:17:58;;;;;;;;;;;;;;;21.39;44.00;100224.31;5052649;28;19912;-76
2023/10/06 08:20:24;;;;;;;;;;;;;;;21.46;44.09;100224.22;5052476;28;19913;-77
2023/10/06 08:22:50;;;;;;;;;;;;;;;21.57;44.25;100226.13;5051060;28;19916;-77
2023/10/06 08:25:16;;;;;;;;;;;;;;;21.63;43.83;100227.06;5052051;28;20439;-76
2023/10/06 08:27:42;;;;;;;;;;;;;;;21.71;43.68;100213.25;5052143;28;20457;-74
2023/10/06 08:30:09;;;;;;;;;;;;;;;21.79;43.76;100219.09;5052170;28;19913;-77
2023/10/06 08:32:34;;;;;;;;;;;;;;;21.91;43.54;100221.78;5052305;28;19916;-77
2023/10/06 08:35:00;;;;;;;;;;;;;;;22.04;43.49;100224.25;5051907;28;19917;-77
2023/10/06 08:37:25;;;;;;;;;;;;;;;22.16;43.18;100225.03;5051846;28;19913;-78
2023/10/06 08:39:50;;;;;;;;;;;;;;;22.26;43.11;100226.31;5052325;28;19913;-77
2023/10/06 08:42:16;;;;;;;;;;;;;;;22.33;42.90;100225.16;5052479;28;20000;-76
2023/10/06 08:44:44;;;;;;;;;;;;;;;22.42;42.90;100226.41;5052281;28;19952;-76
2023/10/06 08:47:12;;;;;;;;;;;;;;;22.53;42.67;100224.72;5052780;28;19982;-78
2023/10/06 08:49:39;;;;;;;;;;;;;;;22.64;42.50;100217.66;5052092;28;19960;-77
2023/10/06 08:52:06;;;;;;;;;;;;;;;22.70;42.13;100217.50;5050781;28;19912;-76
2023/10/06 08:54:32;;;;;;;;;;;;;;;22.77;42.33;100217.38;5051874;28;19919;-76
2023/10/06 08:56:57;;;;;;;;;;;;;;;22.80;41.66;100211.53;5050608;28;19913;-77
2023/10/06 08:59:23;;;;;;;;;;;;;;;22.85;42.00;100216.19;5051520;28;19991;-77
2023/10/06 09:01:49;;;;;;;;;;;;;;;22.89;41.33;100218.16;5050446;28;19956;-76
2023/10/06 09:04:14;;;;;;;;;;;;;;;22.95;41.70;100208.28;5066021;28;19974;-77
2023/10/06 09:06:58;;;;;;;;;;;;;;;22.99;41.53;100210.25;5072161;28;19921;-77
2023/10/06 09:09:27;;;;;;;;;;;;;;;23.08;41.59;100208.81;5054648;28;20294;-76
2023/10/06 09:11:52;;;;;;;;;;;;;;;23.21;41.35;100212.25;5059316;28;19928;-76
2023/10/06 09:14:17;;;;;;;;;;;;;;;23.28;41.08;100211.03;5066256;28;20007;-77
2023/10/06 09:16:49;;;;;;;;;;;;;;;23.30;40.65;100205.41;5073773;28;19913;-76
2023/10/06 09:19:14;;;;;;;;;;;;;;;23.34;40.24;100211.94;5075410;28;19989;-75
2023/10/06 09:21:59;;;;;;;;;;;;;;;23.45;40.40;100208.34;5068818;28;20412;-75
2023/10/06 09:24:25;;;;;;;;;;;;;;;23.57;39.97;100210.97;5072407;28;20356;-76
2023/10/06 09:26:50;;;;;;;;;;;;;;;23.69;39.66;100206.28;5074861;28;19916;-76
2023/10/06 09:29:28;;;;;;;;;;;;;;;23.74;39.32;100204.47;5075051;28;19913;-76
2023/10/06 09:31:57;;;;;;;;;;;;;;;23.79;39.78;100200.25;5074361;28;19919;-77
2023/10/06 09:34:25;;;;;;;;;;;;;;;23.87;40.07;100199.81;5055221;28;19921;-76
2023/10/06 09:36:51;;;;;;;;;;;;;;;23.95;39.81;100196.69;5056329;28;20013;-77
2023/10/06 09:39:26;;;;;;;;;;;;;;;24.07;39.31;100200.91;5061703;28;20393;-76
2023/10/06 09:41:54;;;;;;;;;;;;;;;24.23;39.35;100193.00;5088754;28;19951;-77
2023/10/06 09:44:20;;;;;;;;;;;;;;;24.39;39.38;100198.34;5073419;28;19924;-76
2023/10/06 09:46:46;;;;;;;;;;;;;;;24.51;38.64;100190.09;5066218;28;20382;-76
2023/10/06 09:49:15;;;;;;;;;;;;;;;24.51;39.23;100195.50;5061301;28;19924;-77
2023/10/06 09:51:41;;;;;;;;;;;;;;;24.45;39.15;100180.31;5073650;28;19955;-77
2023/10/06 09:54:10;;;;;;;;;;;;;;;24.45;39.04;100182.22;5071966;28;19916;-75
2023/10/06 09:56:38;;;;;;;;;;;;;;;24.55;38.91;100177.75;5073303;28;20329;-77
2023/10/06 09:59:07;;;;;;;;;;;;;;;24.59;38.68;100167.25;5073365;28;20316;-76
2023/10/06 10:01:34;;;;;;;;;;;;;;;24.68;39.02;100169.25;5074539;28;19927;-77
2023/10/06 10:04:01;;;;;;;;;;;;;;;24.77;38.83;100166.09;5074615;28;19950;-77
2023/10/06 10:06:26;;;;;;;;;;;;;;;24.82;38.53;100163.44;5074369;28;19970;-77
2023/10/06 10:08:52;;;;;;;;;;;;;;;24.88;38.32;100147.00;5074192;28;20370;-77
2023/10/06 10:11:39;;;;;;;;;;;;;;;24.87;38.40;100150.78;5071868;28;19917;-75
2023/10/06 10:14:05;;;;;;;;;;;;;;;24.88;37.88;100140.78;5074716;28;19960;-77
2023/10/06 10:16:48;;;;;;;;;;;;;;;24.93;38.35;100136.25;5074057;28;19916;-76
2023/10/06 10:19:16;;;;;;;;;;;;;;;24.94;38.44;100135.16;5075370;28;19916;-76
2023/10/06 10:21:44;;;;;;;;;;;;;;;24.89;38.49;100137.03;5067468;28;20392;-77
2023/10/06 10:24:12;;;;;;;;;;;;;;;24.85;38.64;100135.91;5053999;28;19909;-75
2023/10/06 10:26:39;;;;;;;;;;;;;;;24.82;38.32;100125.63;5072458;28;19920;-75
2023/10/06 10:29:24;;;;;;;;;;;;;;;24.81;38.72;100134.78;5074153;28;19912;-75
2023/10/06 10:31:56;;;;;;;;;;;;;;;24.76;38.07;100124.75;5049943;28;19992;-76
2023/10/06 10:34:21;;;;;;;;;;;;;;;24.73;38.95;100127.16;5055041;28;20033;-76
2023/10/06 10:37:07;;;;;;;;;;;;;;;24.74;39.00;100120.69;5066974;28;19917;-76
2023/10/06 10:39:51;;;;;;;;;;;;;;;24.73;38.66;100116.34;5057385;28;20294;-76
2023/10/06 10:42:18;;;;;;;;;;;;;;;24.86;38.72;100121.31;5072472;28;20003;-76
2023/10/06 10:44:48;;;;;;;;;;;;;;;25.05;38.44;100114.47;5071990;28;20404;-76
2023/10/06 10:47:15;;;;;;;;;;;;;;;25.11;38.28;100113.44;5059696;28;19995;-77
2023/10/06 10:49:41;;;;;;;;;;;;;;;25.16;38.32;100116.19;5053923;28;20413;-77
2023/10/06 10:52:07;;;;;;;;;;;;;;;25.26;38.18;100110.84;5053912;28;19952;-76
2023/10/06 10:54:33;;;;;;;;;;;;;;;25.22;37.41;100108.91;5053791;28;19917;-76
2023/10/06 10:57:05;;;;;;;;;;;;;;;25.13;38.29;100107.78;5052230;28;19959;-77
2023/10/06 10:59:49;;;;;;;;;;;;;;;25.13;38.18;100097.78;5069074;28;19958;-76
2023/10/06 11:02:15;;;;;;;;;;;;;;;25.25;37.82;100094.88;5071929;28;19920;-77
2023/10/06 11:04:42;;;;;;;;;;;;;;;25.30;37.97;100090.34;5071648;28;20457;-76
2023/10/06 11:07:12;;;;;;;;;;;;;;;25.36;37.64;100085.78;5073591;28;20003;-75
2023/10/06 11:09:46;;;;;;;;;;;;;;;25.37;37.83;100089.31;5073542;28;19919;-77
2023/10/06 11:12:25;;;;;;;;;;;;;;;25.34;37.70;100090.66;5067594;28;19920;-75
2023/10/06 11:14:55;;;;;;;;;;;;;;;25.19;38.04;100085.94;5072796;28;19920;-78
2023/10/06 11:17:24;;;;;;;;;;;;;;;25.04;37.96;100088.53;5075682;28;19916;-77
2023/10/06 11:20:12;;;;;;;;;;;;;;;25.04;38.50;100080.44;5069988;28;19995;-77
2023/10/06 11:22:38;;;;;;;;;;;;;;;25.00;38.10;100084.72;5065542;28;19916;-77
2023/10/06 11:25:03;;;;;;;;;;;;;;;25.17;38.10;100079.16;5073342;28;19927;-76
2023/10/06 11:27:28;;;;;;;;;;;;;;;25.31;37.91;100081.16;5073299;28;19917;-77
2023/10/06 11:29:57;;;;;;;;;;;;;;;25.39;37.21;100069.03;5072449;28;19912;-74
2023/10/06 11:32:22;;;;;;;;;;;;;;;25.42;37.40;100075.81;5073142;28;19913;-77
2023/10/06 11:34:49;;;;;;;;;;;;;;;25.36;37.60;100079.56;5072967;28;19920;-77
2023/10/06 11:37:16;;;;;;;;;;;;;;;25.24;37.74;100068.94;5071544;28;20309;-77
2023/10/06 11:39:41;;;;;;;;;;;;;;;25.20;38.00;100067.84;5072528;28;19916;-76
2023/10/06 11:42:25;;;;;;;;;;;;;;;25.23;38.05;100067.31;5066738;28;19916;-76
2023/10/06 11:44:54;;;;;;;;;;;;;;;25.18;37.92;100068.09;5051216;28;19913;-77
2023/10/06 11:47:28;;;;;;;;;;;;;;;25.17;38.15;100060.25;5052586;28;20473;-76
2023/10/06 11:49:53;;;;;;;;;;;;;;;25.16;38.07;100054.03;5057777;28;19940;-76
2023/10/06 11:52:19;;;;;;;;;;;;;;;25.12;38.30;100058.31;5052618;28;19912;-77
2023/10/06 11:54:44;;;;;;;;;;;;;;;25.03;37.95;100057.19;5071949;28;20380;-76
2023/10/06 11:57:09;;;;;;;;;;;;;;;24.96;38.40;100048.47;5071963;28;19912;-76
2023/10/06 11:59:35;;;;;;;;;;;;;;;24.95;38.40;100047.66;5072316;28;19924;-77
2023/10/06 12:02:09;;;;;;;;;;;;;;;24.90;38.25;100053.03;5060650;28;19923;-76
2023/10/06 12:04:35;;;;;;;;;;;;;;;24.95;38.29;100050.34;5068753;28;20448;-76
2023/10/06 12:07:02;;;;;;;;;;;;;;;24.98;38.42;100047.16;5070049;28;21662;-75
2023/10/06 12:09:33;;;;;;;;;;;;;;;24.99;38.21;100039.88;5070881;28;19912;-76
2023/10/06 12:11:59;;;;;;;;;;;;;;;25.01;38.37;100038.53;5070933;28;19913;-76
2023/10/06 12:14:27;;;;;;;;;;;;;;;24.97;38.26;100037.44;5072162;28;19999;-75
2023/10/06 12:16:54;;;;;;;;;;;;;;;25.03;38.48;100036.38;5056865;28;20313;-76
2023/10/06 12:19:20;;;;;;;;;;;;;;;25.06;38.01;100034.25;5065562;28;20401;-76
2023/10/06 12:21:46;;;;;;;;;;;;;;;25.04;38.26;100039.91;5050960;28;19974;-76
2023/10/06 12:24:11;;;;;;;;;;;;;;;25.06;38.44;100039.63;5068292;28;19920;-76
2023/10/06 12:26:40;;;;;;;;;;;;;;;25.09;38.45;100045.34;5067276;28;19920;-76
2023/10/06 12:29:05;;;;;;;;;;;;;;;25.10;38.07;100044.25;5056922;28;20413;-76
2023/10/06 12:31:31;;;;;;;;;;;;;;;25.12;37.97;100042.13;5053026;28;19924;-77
2023/10/06 12:33:56;;;;;;;;;;;;;;;25.14;38.04;100042.66;5051963;28;19913;-77
2023/10/06 12:36:22;;;;;;;;;;;;;;;25.15;38.22;100038.88;5052123;28;20021;-75
2023/10/06 12:38:47;;;;;;;;;;;;;;;25.18;38.55;100043.78;5064154;28;20274;-76
2023/10/06 12:41:12;;;;;;;;;;;;;;;25.16;37.99;100042.41;5071479;28;19920;-75
2023/10/06 12:43:38;;;;;;;;;;;;;;;25.15;38.18;100048.88;5076942;28;20313;-76
2023/10/06 12:46:03;;;;;;;;;;;;;;;25.17;38.58;100042.13;5072577;28;20011;-75